sensor_id;sensor_type;location;lat;lon;timestamp;temperature;humidity
33023;DHT22;19390;51.460;5.710;2022-09-01T00:02:24;16.10;99.90
33023;DHT22;19390;51.460;5.710;2022-09-01T00:04:53;16.20;99.90
33023;DHT22;19390;51.460;5.710;2022-09-01T00:07:24;16.10;99.90
33023;DHT22;19390;51.460;5.710;2022-09-01T00:09:50;16.10;99.90
33023;DHT22;19390;51.460;5.710;2022-09-01T00:12:16;15.90;99.90
33023;DHT22;19390;51.460;5.710;2022-09-01T00:14:42;15.90;99.90
33023;DHT22;19390;51.460;5.710;2022-09-01T00:17:10;15.90;99.90
33023;DHT22;19390;51.460;5.710;2022-09-01T00:19:37;15.90;99.90
33023;DHT22;19390;51.460;5.710;2022-09-01T00:22:04;15.80;99.90
33023;DHT22;19390;51.460;5.710;2022-09-01T00:24:29;15.70;99.90
33023;DHT22;19390;51.460;5.710;2022-09-01T00:26:56;15.70;99.90
33023;DHT22;19390;51.460;5.710;2022-09-01T00:29:23;15.60;99.90
33023;DHT22;19390;51.460;5.710;2022-09-01T00:31:49;15.60;99.90
33023;DHT22;19390;51.460;5.710;2022-09-01T00:34:15;15.50;99.90
33023;DHT22;19390;51.460;5.710;2022-09-01T00:36:41;15.40;99.90
33023;DHT22;19390;51.460;5.710;2022-09-01T00:39:07;15.40;99.90
33023;DHT22;19390;51.460;5.710;2022-09-01T00:41:34;15.40;99.90
33023;DHT22;19390;51.460;5.710;2022-09-01T00:44:05;15.30;99.90
33023;DHT22;19390;51.460;5.710;2022-09-01T00:46:34;15.30;99.90
33023;DHT22;19390;51.460;5.710;2022-09-01T00:49:39;15.30;99.90
33023;DHT22;19390;51.460;5.710;2022-09-01T00:52:14;15.30;99.90
33023;DHT22;19390;51.460;5.710;2022-09-01T00:54:45;15.30;99.90
33023;DHT22;19390;51.460;5.710;2022-09-01T00:57:12;15.30;99.90
33023;DHT22;19390;51.460;5.710;2022-09-01T00:59:49;15.30;99.90
33023;DHT22;19390;51.460;5.710;2022-09-01T01:02:16;15.30;99.90
33023;DHT22;19390;51.460;5.710;2022-09-01T01:04:41;15.20;99.90
33023;DHT22;19390;51.460;5.710;2022-09-01T01:07:09;15.20;99.90
33023;DHT22;19390;51.460;5.710;2022-09-01T01:09:39;15.10;99.90
33023;DHT22;19390;51.460;5.710;2022-09-01T01:12:07;15.10;99.90
33023;DHT22;19390;51.460;5.710;2022-09-01T01:14:36;15.10;99.90
33023;DHT22;19390;51.460;5.710;2022-09-01T01:17:04;15.00;99.90
33023;DHT22;19390;51.460;5.710;2022-09-01T01:19:45;14.90;99.90
33023;DHT22;19390;51.460;5.710;2022-09-01T01:25:43;14.90;99.90
33023;DHT22;19390;51.460;5.710;2022-09-01T01:28:13;14.80;99.90
33023;DHT22;19390;51.460;5.710;2022-09-01T01:30:43;14.70;99.90
33023;DHT22;19390;51.460;5.710;2022-09-01T01:33:10;14.60;99.90
33023;DHT22;19390;51.460;5.710;2022-09-01T01:35:36;14.60;99.90
33023;DHT22;19390;51.460;5.710;2022-09-01T01:38:03;14.60;99.90
33023;DHT22;19390;51.460;5.710;2022-09-01T01:40:32;14.50;99.90
33023;DHT22;19390;51.460;5.710;2022-09-01T01:42:58;14.50;99.90
33023;DHT22;19390;51.460;5.710;2022-09-01T01:45:27;14.40;99.90
33023;DHT22;19390;51.460;5.710;2022-09-01T01:47:53;14.40;99.90
33023;DHT22;19390;51.460;5.710;2022-09-01T01:50:22;14.40;99.90
33023;DHT22;19390;51.460;5.710;2022-09-01T01:52:48;14.40;99.90
33023;DHT22;19390;51.460;5.710;2022-09-01T01:55:14;14.40;99.90
33023;DHT22;19390;51.460;5.710;2022-09-01T01:57:46;14.40;99.90
33023;DHT22;19390;51.460;5.710;2022-09-01T02:00:20;14.30;99.90
33023;DHT22;19390;51.460;5.710;2022-09-01T02:02:47;14.20;99.90
33023;DHT22;19390;51.460;5.710;2022-09-01T02:05:23;14.20;99.90
33023;DHT22;19390;51.460;5.710;2022-09-01T02:07:53;14.10;99.90
33023;DHT22;19390;51.460;5.710;2022-09-01T02:10:27;14.10;99.90
33023;DHT22;19390;51.460;5.710;2022-09-01T02:12:55;14.10;99.90
33023;DHT22;19390;51.460;5.710;2022-09-01T02:15:29;14.00;99.90
33023;DHT22;19390;51.460;5.710;2022-09-01T02:17:56;14.00;99.90
33023;DHT22;19390;51.460;5.710;2022-09-01T02:20:25;14.00;99.90
33023;DHT22;19390;51.460;5.710;2022-09-01T02:22:54;13.90;99.90
33023;DHT22;19390;51.460;5.710;2022-09-01T02:25:20;13.90;99.90
33023;DHT22;19390;51.460;5.710;2022-09-01T02:27:47;13.90;99.90
33023;DHT22;19390;51.460;5.710;2022-09-01T02:30:16;13.90;99.90
33023;DHT22;19390;51.460;5.710;2022-09-01T02:32:42;13.80;99.90
33023;DHT22;19390;51.460;5.710;2022-09-01T02:35:08;13.70;99.90
33023;DHT22;19390;51.460;5.710;2022-09-01T02:37:35;13.80;99.90
33023;DHT22;19390;51.460;5.710;2022-09-01T02:40:05;13.70;99.90
33023;DHT22;19390;51.460;5.710;2022-09-01T02:42:30;13.70;99.90
33023;DHT22;19390;51.460;5.710;2022-09-01T02:44:56;13.70;99.90
33023;DHT22;19390;51.460;5.710;2022-09-01T02:47:23;13.70;99.90
33023;DHT22;19390;51.460;5.710;2022-09-01T02:49:51;13.60;99.90
33023;DHT22;19390;51.460;5.710;2022-09-01T02:52:17;13.50;99.90
33023;DHT22;19390;51.460;5.710;2022-09-01T02:54:46;13.50;99.90
33023;DHT22;19390;51.460;5.710;2022-09-01T02:57:13;13.60;99.90
33023;DHT22;19390;51.460;5.710;2022-09-01T02:59:39;13.50;99.90
33023;DHT22;19390;51.460;5.710;2022-09-01T03:02:06;13.60;99.90
33023;DHT22;19390;51.460;5.710;2022-09-01T03:04:33;13.60;99.90
33023;DHT22;19390;51.460;5.710;2022-09-01T03:07:00;13.50;99.90
33023;DHT22;19390;51.460;5.710;2022-09-01T03:09:26;13.60;99.90
33023;DHT22;19390;51.460;5.710;2022-09-01T03:11:53;13.60;99.90
33023;DHT22;19390;51.460;5.710;2022-09-01T03:14:20;13.60;99.90
33023;DHT22;19390;51.460;5.710;2022-09-01T03:16:46;13.60;99.90
33023;DHT22;19390;51.460;5.710;2022-09-01T03:19:12;13.60;99.90
33023;DHT22;19390;51.460;5.710;2022-09-01T03:21:40;13.60;99.90
33023;DHT22;19390;51.460;5.710;2022-09-01T03:24:11;13.50;99.90
33023;DHT22;19390;51.460;5.710;2022-09-01T03:26:40;13.50;99.90
33023;DHT22;19390;51.460;5.710;2022-09-01T03:29:07;13.40;99.90
33023;DHT22;19390;51.460;5.710;2022-09-01T03:31:33;13.40;99.90
33023;DHT22;19390;51.460;5.710;2022-09-01T03:34:00;13.40;99.90
33023;DHT22;19390;51.460;5.710;2022-09-01T03:36:28;13.40;99.90
33023;DHT22;19390;51.460;5.710;2022-09-01T03:38:55;13.40;99.90
33023;DHT22;19390;51.460;5.710;2022-09-01T03:41:26;13.40;99.90
33023;DHT22;19390;51.460;5.710;2022-09-01T03:43:53;13.40;99.90
33023;DHT22;19390;51.460;5.710;2022-09-01T03:46:23;13.40;99.90
33023;DHT22;19390;51.460;5.710;2022-09-01T03:48:52;13.40;99.90
33023;DHT22;19390;51.460;5.710;2022-09-01T03:51:19;13.40;99.90
33023;DHT22;19390;51.460;5.710;2022-09-01T03:53:47;13.30;99.90
33023;DHT22;19390;51.460;5.710;2022-09-01T03:56:12;13.20;99.90
33023;DHT22;19390;51.460;5.710;2022-09-01T03:58:40;13.10;99.90
33023;DHT22;19390;51.460;5.710;2022-09-01T04:01:11;13.10;99.90
33023;DHT22;19390;51.460;5.710;2022-09-01T04:03:37;13.00;99.90
33023;DHT22;19390;51.460;5.710;2022-09-01T04:06:07;12.90;99.90
33023;DHT22;19390;51.460;5.710;2022-09-01T04:08:33;12.90;99.90
33023;DHT22;19390;51.460;5.710;2022-09-01T04:11:02;12.80;99.90
33023;DHT22;19390;51.460;5.710;2022-09-01T04:13:35;12.80;99.90
33023;DHT22;19390;51.460;5.710;2022-09-01T04:16:01;12.60;99.90
33023;DHT22;19390;51.460;5.710;2022-09-01T04:18:27;12.60;99.90
33023;DHT22;19390;51.460;5.710;2022-09-01T04:20:57;12.60;99.90
33023;DHT22;19390;51.460;5.710;2022-09-01T04:23:28;12.60;99.90
33023;DHT22;19390;51.460;5.710;2022-09-01T04:26:04;12.60;99.90
33023;DHT22;19390;51.460;5.710;2022-09-01T04:28:39;12.60;99.90
33023;DHT22;19390;51.460;5.710;2022-09-01T04:31:08;12.50;99.90
33023;DHT22;19390;51.460;5.710;2022-09-01T04:33:36;12.40;99.90
33023;DHT22;19390;51.460;5.710;2022-09-01T04:36:14;12.40;99.90
33023;DHT22;19390;51.460;5.710;2022-09-01T04:38:44;12.30;99.90
33023;DHT22;19390;51.460;5.710;2022-09-01T04:41:11;12.30;99.90
33023;DHT22;19390;51.460;5.710;2022-09-01T04:43:45;12.20;99.90
33023;DHT22;19390;51.460;5.710;2022-09-01T04:46:12;12.20;99.90
33023;DHT22;19390;51.460;5.710;2022-09-01T04:48:39;12.20;99.90
33023;DHT22;19390;51.460;5.710;2022-09-01T04:51:08;12.20;99.90
33023;DHT22;19390;51.460;5.710;2022-09-01T04:53:35;12.20;99.90
33023;DHT22;19390;51.460;5.710;2022-09-01T04:56:07;12.20;99.90
33023;DHT22;19390;51.460;5.710;2022-09-01T04:58:36;12.20;99.90
33023;DHT22;19390;51.460;5.710;2022-09-01T05:01:06;12.10;99.90
33023;DHT22;19390;51.460;5.710;2022-09-01T05:03:37;12.10;99.90
33023;DHT22;19390;51.460;5.710;2022-09-01T05:06:03;12.20;99.90
33023;DHT22;19390;51.460;5.710;2022-09-01T05:08:29;12.20;99.90
33023;DHT22;19390;51.460;5.710;2022-09-01T05:11:03;12.10;99.90
33023;DHT22;19390;51.460;5.710;2022-09-01T05:13:32;12.10;99.90
33023;DHT22;19390;51.460;5.710;2022-09-01T05:16:03;12.20;99.90
33023;DHT22;19390;51.460;5.710;2022-09-01T05:18:30;12.20;99.90
33023;DHT22;19390;51.460;5.710;2022-09-01T05:20:56;12.30;99.90
33023;DHT22;19390;51.460;5.710;2022-09-01T05:23:22;12.30;99.90
33023;DHT22;19390;51.460;5.710;2022-09-01T05:25:51;12.30;99.90
33023;DHT22;19390;51.460;5.710;2022-09-01T05:28:19;12.30;99.90
33023;DHT22;19390;51.460;5.710;2022-09-01T05:30:46;12.40;99.90
33023;DHT22;19390;51.460;5.710;2022-09-01T05:33:13;12.40;99.90
33023;DHT22;19390;51.460;5.710;2022-09-01T05:35:42;12.40;99.90
33023;DHT22;19390;51.460;5.710;2022-09-01T05:38:17;12.50;99.90
33023;DHT22;19390;51.460;5.710;2022-09-01T05:40:44;12.50;99.90
33023;DHT22;19390;51.460;5.710;2022-09-01T05:43:19;12.50;99.90
33023;DHT22;19390;51.460;5.710;2022-09-01T05:45:46;12.60;99.90
33023;DHT22;19390;51.460;5.710;2022-09-01T05:48:12;12.80;99.90
33023;DHT22;19390;51.460;5.710;2022-09-01T05:50:40;12.90;99.90
33023;DHT22;19390;51.460;5.710;2022-09-01T05:53:09;13.10;99.90
33023;DHT22;19390;51.460;5.710;2022-09-01T05:55:41;13.20;99.90
33023;DHT22;19390;51.460;5.710;2022-09-01T05:58:09;13.60;99.90
33023;DHT22;19390;51.460;5.710;2022-09-01T06:00:41;13.70;52.40
33023;DHT22;19390;51.460;5.710;2022-09-01T06:03:09;14.60;72.50
33023;DHT22;19390;51.460;5.710;2022-09-01T06:05:35;15.70;99.90
33023;DHT22;19390;51.460;5.710;2022-09-01T06:08:05;18.30;99.90
33023;DHT22;19390;51.460;5.710;2022-09-01T06:10:33;19.00;99.90
33023;DHT22;19390;51.460;5.710;2022-09-01T06:13:02;18.30;99.90
33023;DHT22;19390;51.460;5.710;2022-09-01T06:15:30;17.90;99.90
33023;DHT22;19390;51.460;5.710;2022-09-01T06:17:57;15.90;1.00
33023;DHT22;19390;51.460;5.710;2022-09-01T06:20:23;15.40;99.90
33023;DHT22;19390;51.460;5.710;2022-09-01T06:22:50;15.20;99.90
33023;DHT22;19390;51.460;5.710;2022-09-01T06:25:18;15.00;99.90
33023;DHT22;19390;51.460;5.710;2022-09-01T06:27:44;15.10;99.90
33023;DHT22;19390;51.460;5.710;2022-09-01T06:30:14;15.10;99.90
33023;DHT22;19390;51.460;5.710;2022-09-01T06:32:43;15.20;99.90
33023;DHT22;19390;51.460;5.710;2022-09-01T06:35:10;15.10;99.90
33023;DHT22;19390;51.460;5.710;2022-09-01T06:37:37;15.10;99.90
33023;DHT22;19390;51.460;5.710;2022-09-01T06:40:04;15.00;99.90
33023;DHT22;19390;51.460;5.710;2022-09-01T06:42:30;14.90;99.90
33023;DHT22;19390;51.460;5.710;2022-09-01T06:45:00;15.00;99.90
33023;DHT22;19390;51.460;5.710;2022-09-01T06:47:26;16.90;99.90
33023;DHT22;19390;51.460;5.710;2022-09-01T06:49:53;18.80;99.90
33023;DHT22;19390;51.460;5.710;2022-09-01T06:52:23;19.30;99.90
33023;DHT22;19390;51.460;5.710;2022-09-01T06:54:50;19.60;99.90
33023;DHT22;19390;51.460;5.710;2022-09-01T06:57:17;20.40;99.90
33023;DHT22;19390;51.460;5.710;2022-09-01T06:59:43;23.50;99.90
33023;DHT22;19390;51.460;5.710;2022-09-01T07:02:10;25.20;99.90
33023;DHT22;19390;51.460;5.710;2022-09-01T07:04:41;26.20;99.90
33023;DHT22;19390;51.460;5.710;2022-09-01T07:07:09;25.20;99.90
33023;DHT22;19390;51.460;5.710;2022-09-01T07:09:35;26.10;99.90
33023;DHT22;19390;51.460;5.710;2022-09-01T07:12:02;25.30;99.90
33023;DHT22;19390;51.460;5.710;2022-09-01T07:14:28;25.30;99.90
33023;DHT22;19390;51.460;5.710;2022-09-01T07:16:54;28.10;99.90
33023;DHT22;19390;51.460;5.710;2022-09-01T07:19:20;27.50;99.90
33023;DHT22;19390;51.460;5.710;2022-09-01T07:21:45;25.80;99.90
33023;DHT22;19390;51.460;5.710;2022-09-01T07:24:12;25.00;99.90
33023;DHT22;19390;51.460;5.710;2022-09-01T07:26:40;28.00;99.90
33023;DHT22;19390;51.460;5.710;2022-09-01T07:29:07;24.90;99.90
33023;DHT22;19390;51.460;5.710;2022-09-01T07:31:41;25.30;99.90
33023;DHT22;19390;51.460;5.710;2022-09-01T07:34:10;26.40;99.90
33023;DHT22;19390;51.460;5.710;2022-09-01T07:36:37;27.40;99.90
33023;DHT22;19390;51.460;5.710;2022-09-01T07:39:04;26.90;99.90
33023;DHT22;19390;51.460;5.710;2022-09-01T07:41:30;26.10;99.90
33023;DHT22;19390;51.460;5.710;2022-09-01T07:44:00;24.90;99.90
33023;DHT22;19390;51.460;5.710;2022-09-01T07:46:27;28.20;99.90
33023;DHT22;19390;51.460;5.710;2022-09-01T07:48:56;28.00;99.90
33023;DHT22;19390;51.460;5.710;2022-09-01T07:51:23;29.70;99.90
33023;DHT22;19390;51.460;5.710;2022-09-01T07:53:49;27.50;99.90
33023;DHT22;19390;51.460;5.710;2022-09-01T07:56:18;26.90;99.90
33023;DHT22;19390;51.460;5.710;2022-09-01T07:58:46;27.00;99.90
33023;DHT22;19390;51.460;5.710;2022-09-01T08:01:18;25.50;99.90
33023;DHT22;19390;51.460;5.710;2022-09-01T08:03:47;29.20;99.90
33023;DHT22;19390;51.460;5.710;2022-09-01T08:06:15;28.00;99.90
33023;DHT22;19390;51.460;5.710;2022-09-01T08:08:44;26.50;99.90
33023;DHT22;19390;51.460;5.710;2022-09-01T08:11:19;26.80;99.90
33023;DHT22;19390;51.460;5.710;2022-09-01T08:13:45;27.20;99.90
33023;DHT22;19390;51.460;5.710;2022-09-01T08:16:12;26.50;99.90
33023;DHT22;19390;51.460;5.710;2022-09-01T08:18:39;28.30;99.90
33023;DHT22;19390;51.460;5.710;2022-09-01T08:21:06;28.00;99.90
33023;DHT22;19390;51.460;5.710;2022-09-01T08:23:32;28.70;99.90
33023;DHT22;19390;51.460;5.710;2022-09-01T08:26:04;27.50;99.90
33023;DHT22;19390;51.460;5.710;2022-09-01T08:28:30;28.60;99.90
33023;DHT22;19390;51.460;5.710;2022-09-01T08:30:55;28.20;99.90
33023;DHT22;19390;51.460;5.710;2022-09-01T08:33:21;27.70;99.90
33023;DHT22;19390;51.460;5.710;2022-09-01T08:35:48;28.80;99.90
33023;DHT22;19390;51.460;5.710;2022-09-01T08:38:14;29.00;99.90
33023;DHT22;19390;51.460;5.710;2022-09-01T08:40:40;28.70;99.90
33023;DHT22;19390;51.460;5.710;2022-09-01T08:46:53;28.90;99.90
33023;DHT22;19390;51.460;5.710;2022-09-01T08:49:28;29.10;99.90
33023;DHT22;19390;51.460;5.710;2022-09-01T08:54:49;29.10;99.90
33023;DHT22;19390;51.460;5.710;2022-09-01T08:57:17;29.40;99.90
33023;DHT22;19390;51.460;5.710;2022-09-01T08:59:44;31.10;99.90
33023;DHT22;19390;51.460;5.710;2022-09-01T09:10:44;28.60;99.90
33023;DHT22;19390;51.460;5.710;2022-09-01T09:13:24;30.70;99.90
33023;DHT22;19390;51.460;5.710;2022-09-01T09:16:05;31.00;99.90
33023;DHT22;19390;51.460;5.710;2022-09-01T09:18:36;34.10;99.90
33023;DHT22;19390;51.460;5.710;2022-09-01T09:21:19;29.60;99.90
33023;DHT22;19390;51.460;5.710;2022-09-01T09:23:53;30.00;99.90
33023;DHT22;19390;51.460;5.710;2022-09-01T09:26:20;29.40;99.90
33023;DHT22;19390;51.460;5.710;2022-09-01T09:28:47;29.90;99.90
33023;DHT22;19390;51.460;5.710;2022-09-01T09:33:54;30.60;99.90
33023;DHT22;19390;51.460;5.710;2022-09-01T09:36:22;32.70;99.90
33023;DHT22;19390;51.460;5.710;2022-09-01T09:39:12;31.40;99.90
33023;DHT22;19390;51.460;5.710;2022-09-01T09:41:39;30.50;99.90
33023;DHT22;19390;51.460;5.710;2022-09-01T09:44:17;31.10;99.90
33023;DHT22;19390;51.460;5.710;2022-09-01T09:46:45;30.50;99.90
33023;DHT22;19390;51.460;5.710;2022-09-01T09:49:22;32.40;99.70
33023;DHT22;19390;51.460;5.710;2022-09-01T09:54:36;30.90;98.70
33023;DHT22;19390;51.460;5.710;2022-09-01T10:04:56;31.80;95.10
33023;DHT22;19390;51.460;5.710;2022-09-01T10:09:50;30.00;96.10
33023;DHT22;19390;51.460;5.710;2022-09-01T10:12:17;32.50;95.10
33023;DHT22;19390;51.460;5.710;2022-09-01T10:15:15;30.50;95.00
33023;DHT22;19390;51.460;5.710;2022-09-01T10:17:43;31.20;93.90
33023;DHT22;19390;51.460;5.710;2022-09-01T10:20:17;32.00;92.60
33023;DHT22;19390;51.460;5.710;2022-09-01T10:22:45;32.20;93.80
33023;DHT22;19390;51.460;5.710;2022-09-01T10:25:16;31.90;92.70
33023;DHT22;19390;51.460;5.710;2022-09-01T10:27:46;29.90;92.50
33023;DHT22;19390;51.460;5.710;2022-09-01T10:30:19;32.90;93.40
33023;DHT22;19390;51.460;5.710;2022-09-01T10:32:49;34.40;90.90
33023;DHT22;19390;51.460;5.710;2022-09-01T10:35:28;31.70;91.50
33023;DHT22;19390;51.460;5.710;2022-09-01T10:37:55;31.90;91.10
33023;DHT22;19390;51.460;5.710;2022-09-01T10:42:49;33.90;89.40
33023;DHT22;19390;51.460;5.710;2022-09-01T10:45:31;30.60;90.10
33023;DHT22;19390;51.460;5.710;2022-09-01T10:50:45;29.80;90.50
33023;DHT22;19390;51.460;5.710;2022-09-01T10:59:08;30.70;91.00
33023;DHT22;19390;51.460;5.710;2022-09-01T11:04:17;30.90;90.70
33023;DHT22;19390;51.460;5.710;2022-09-01T11:07:02;31.90;90.50
33023;DHT22;19390;51.460;5.710;2022-09-01T11:09:33;32.90;87.20
33023;DHT22;19390;51.460;5.710;2022-09-01T11:14:52;31.90;89.40
33023;DHT22;19390;51.460;5.710;2022-09-01T11:20:27;34.40;88.50
33023;DHT22;19390;51.460;5.710;2022-09-01T11:28:06;36.20;79.80
33023;DHT22;19390;51.460;5.710;2022-09-01T11:30:39;33.00;80.30
33023;DHT22;19390;51.460;5.710;2022-09-01T11:35:42;30.70;79.40
33023;DHT22;19390;51.460;5.710;2022-09-01T11:38:12;30.90;80.80
33023;DHT22;19390;51.460;5.710;2022-09-01T11:40:39;32.10;80.70
33023;DHT22;19390;51.460;5.710;2022-09-01T11:43:15;32.00;77.90
33023;DHT22;19390;51.460;5.710;2022-09-01T11:46:06;30.40;82.30
33023;DHT22;19390;51.460;5.710;2022-09-01T11:48:33;31.10;81.60
33023;DHT22;19390;51.460;5.710;2022-09-01T11:51:00;30.80;79.40
33023;DHT22;19390;51.460;5.710;2022-09-01T11:53:27;31.20;82.80
33023;DHT22;19390;51.460;5.710;2022-09-01T11:55:55;33.60;79.80
33023;DHT22;19390;51.460;5.710;2022-09-01T12:00:54;33.80;76.00
33023;DHT22;19390;51.460;5.710;2022-09-01T12:03:26;37.00;75.20
33023;DHT22;19390;51.460;5.710;2022-09-01T12:06:03;36.30;71.80
33023;DHT22;19390;51.460;5.710;2022-09-01T12:08:33;35.10;71.00
33023;DHT22;19390;51.460;5.710;2022-09-01T12:11:06;30.80;75.90
33023;DHT22;19390;51.460;5.710;2022-09-01T12:13:32;33.30;75.40
33023;DHT22;19390;51.460;5.710;2022-09-01T12:16:03;32.30;73.10
33023;DHT22;19390;51.460;5.710;2022-09-01T12:18:42;33.20;72.20
33023;DHT22;19390;51.460;5.710;2022-09-01T12:21:23;29.80;75.50
33023;DHT22;19390;51.460;5.710;2022-09-01T12:23:49;33.30;71.80
33023;DHT22;19390;51.460;5.710;2022-09-01T12:26:18;33.50;70.20
33023;DHT22;19390;51.460;5.710;2022-09-01T12:28:45;33.40;73.10
33023;DHT22;19390;51.460;5.710;2022-09-01T12:31:17;32.50;71.70
33023;DHT22;19390;51.460;5.710;2022-09-01T12:33:43;31.80;72.80
33023;DHT22;19390;51.460;5.710;2022-09-01T12:38:39;31.20;71.50
33023;DHT22;19390;51.460;5.710;2022-09-01T12:41:35;30.40;77.00
33023;DHT22;19390;51.460;5.710;2022-09-01T12:44:28;32.40;72.40
33023;DHT22;19390;51.460;5.710;2022-09-01T12:46:55;31.60;74.20
33023;DHT22;19390;51.460;5.710;2022-09-01T12:49:33;34.00;73.10
33023;DHT22;19390;51.460;5.710;2022-09-01T12:52:13;29.00;72.50
33023;DHT22;19390;51.460;5.710;2022-09-01T12:54:44;29.90;73.90
33023;DHT22;19390;51.460;5.710;2022-09-01T12:57:20;30.00;74.00
33023;DHT22;19390;51.460;5.710;2022-09-01T13:00:52;31.00;71.30
33023;DHT22;19390;51.460;5.710;2022-09-01T13:03:20;29.40;73.50
33023;DHT22;19390;51.460;5.710;2022-09-01T13:05:53;29.40;74.50
33023;DHT22;19390;51.460;5.710;2022-09-01T13:08:22;29.70;72.40
33023;DHT22;19390;51.460;5.710;2022-09-01T13:11:08;29.90;73.70
33023;DHT22;19390;51.460;5.710;2022-09-01T13:13:34;29.60;74.40
33023;DHT22;19390;51.460;5.710;2022-09-01T13:16:00;30.90;74.10
33023;DHT22;19390;51.460;5.710;2022-09-01T13:18:27;33.40;72.50
33023;DHT22;19390;51.460;5.710;2022-09-01T13:20:54;30.40;72.80
33023;DHT22;19390;51.460;5.710;2022-09-01T13:23:20;30.20;73.90
33023;DHT22;19390;51.460;5.710;2022-09-01T13:25:47;32.50;71.20
33023;DHT22;19390;51.460;5.710;2022-09-01T13:28:13;29.10;72.00
33023;DHT22;19390;51.460;5.710;2022-09-01T13:30:39;31.60;72.50
33023;DHT22;19390;51.460;5.710;2022-09-01T13:33:05;32.40;70.60
33023;DHT22;19390;51.460;5.710;2022-09-01T13:35:31;32.60;70.60
33023;DHT22;19390;51.460;5.710;2022-09-01T13:37:57;34.10;70.10
33023;DHT22;19390;51.460;5.710;2022-09-01T13:40:23;32.60;72.00
33023;DHT22;19390;51.460;5.710;2022-09-01T13:42:53;31.30;71.40
33023;DHT22;19390;51.460;5.710;2022-09-01T13:45:21;29.10;72.00
33023;DHT22;19390;51.460;5.710;2022-09-01T13:47:49;31.50;72.00
33023;DHT22;19390;51.460;5.710;2022-09-01T13:50:17;31.20;70.60
33023;DHT22;19390;51.460;5.710;2022-09-01T13:52:46;33.40;69.80
33023;DHT22;19390;51.460;5.710;2022-09-01T13:55:15;34.10;69.60
33023;DHT22;19390;51.460;5.710;2022-09-01T13:57:41;32.80;68.60
33023;DHT22;19390;51.460;5.710;2022-09-01T14:00:09;30.40;72.40
33023;DHT22;19390;51.460;5.710;2022-09-01T14:02:38;30.20;71.10
33023;DHT22;19390;51.460;5.710;2022-09-01T14:05:04;31.40;71.00
33023;DHT22;19390;51.460;5.710;2022-09-01T14:07:30;29.60;70.10
33023;DHT22;19390;51.460;5.710;2022-09-01T14:09:56;28.60;72.90
33023;DHT22;19390;51.460;5.710;2022-09-01T14:12:22;30.50;72.20
33023;DHT22;19390;51.460;5.710;2022-09-01T14:14:48;30.90;72.80
33023;DHT22;19390;51.460;5.710;2022-09-01T14:17:14;31.10;71.00
33023;DHT22;19390;51.460;5.710;2022-09-01T14:19:40;31.10;73.20
33023;DHT22;19390;51.460;5.710;2022-09-01T14:22:06;32.00;72.90
33023;DHT22;19390;51.460;5.710;2022-09-01T14:24:35;31.00;71.90
33023;DHT22;19390;51.460;5.710;2022-09-01T14:27:01;29.60;73.00
33023;DHT22;19390;51.460;5.710;2022-09-01T14:29:27;29.60;72.90
33023;DHT22;19390;51.460;5.710;2022-09-01T14:31:54;30.20;73.90
33023;DHT22;19390;51.460;5.710;2022-09-01T14:34:24;31.60;71.60
33023;DHT22;19390;51.460;5.710;2022-09-01T14:36:50;31.70;71.20
33023;DHT22;19390;51.460;5.710;2022-09-01T14:39:23;32.00;71.00
33023;DHT22;19390;51.460;5.710;2022-09-01T14:41:49;30.40;72.20
33023;DHT22;19390;51.460;5.710;2022-09-01T14:44:14;29.00;75.20
33023;DHT22;19390;51.460;5.710;2022-09-01T14:46:40;28.30;75.30
33023;DHT22;19390;51.460;5.710;2022-09-01T14:49:06;27.00;77.50
33023;DHT22;19390;51.460;5.710;2022-09-01T14:51:32;28.00;77.50
33023;DHT22;19390;51.460;5.710;2022-09-01T14:53:59;27.30;76.30
33023;DHT22;19390;51.460;5.710;2022-09-01T14:56:25;28.30;76.40
33023;DHT22;19390;51.460;5.710;2022-09-01T14:58:51;28.10;77.70
33023;DHT22;19390;51.460;5.710;2022-09-01T15:01:23;28.40;76.20
33023;DHT22;19390;51.460;5.710;2022-09-01T15:03:50;28.60;76.20
33023;DHT22;19390;51.460;5.710;2022-09-01T15:06:17;28.70;78.20
33023;DHT22;19390;51.460;5.710;2022-09-01T15:08:43;27.30;78.40
33023;DHT22;19390;51.460;5.710;2022-09-01T15:11:10;27.90;78.70
33023;DHT22;19390;51.460;5.710;2022-09-01T15:13:38;27.70;83.30
33023;DHT22;19390;51.460;5.710;2022-09-01T15:16:05;27.70;85.80
33023;DHT22;19390;51.460;5.710;2022-09-01T15:18:36;26.40;80.80
33023;DHT22;19390;51.460;5.710;2022-09-01T15:21:02;27.70;81.90
33023;DHT22;19390;51.460;5.710;2022-09-01T15:23:27;27.80;80.90
33023;DHT22;19390;51.460;5.710;2022-09-01T15:25:54;26.80;81.00
33023;DHT22;19390;51.460;5.710;2022-09-01T15:28:20;26.30;81.40
33023;DHT22;19390;51.460;5.710;2022-09-01T15:30:46;26.50;83.00
33023;DHT22;19390;51.460;5.710;2022-09-01T15:33:13;27.80;82.40
33023;DHT22;19390;51.460;5.710;2022-09-01T15:35:39;27.40;83.20
33023;DHT22;19390;51.460;5.710;2022-09-01T15:38:05;27.10;83.10
33023;DHT22;19390;51.460;5.710;2022-09-01T15:40:39;27.50;85.40
33023;DHT22;19390;51.460;5.710;2022-09-01T15:43:06;27.60;84.20
33023;DHT22;19390;51.460;5.710;2022-09-01T15:45:32;28.60;85.00
33023;DHT22;19390;51.460;5.710;2022-09-01T15:47:57;28.70;84.40
33023;DHT22;19390;51.460;5.710;2022-09-01T15:50:25;27.50;83.30
33023;DHT22;19390;51.460;5.710;2022-09-01T15:53:00;27.00;83.60
33023;DHT22;19390;51.460;5.710;2022-09-01T15:55:37;27.60;86.20
33023;DHT22;19390;51.460;5.710;2022-09-01T15:58:05;26.20;86.00
33023;DHT22;19390;51.460;5.710;2022-09-01T16:00:31;26.80;87.50
33023;DHT22;19390;51.460;5.710;2022-09-01T16:02:58;26.10;85.40
33023;DHT22;19390;51.460;5.710;2022-09-01T16:05:26;26.40;87.10
33023;DHT22;19390;51.460;5.710;2022-09-01T16:07:53;27.00;86.30
33023;DHT22;19390;51.460;5.710;2022-09-01T16:10:19;26.40;86.00
33023;DHT22;19390;51.460;5.710;2022-09-01T16:12:45;26.50;86.50
33023;DHT22;19390;51.460;5.710;2022-09-01T16:15:18;26.40;86.20
33023;DHT22;19390;51.460;5.710;2022-09-01T16:20:20;26.20;87.10
33023;DHT22;19390;51.460;5.710;2022-09-01T16:23:10;25.70;87.20
33023;DHT22;19390;51.460;5.710;2022-09-01T16:25:36;25.70;88.10
33023;DHT22;19390;51.460;5.710;2022-09-01T16:28:09;25.70;87.40
33023;DHT22;19390;51.460;5.710;2022-09-01T16:30:37;25.80;88.30
33023;DHT22;19390;51.460;5.710;2022-09-01T16:33:04;26.10;89.40
33023;DHT22;19390;51.460;5.710;2022-09-01T16:38:42;25.80;89.30
33023;DHT22;19390;51.460;5.710;2022-09-01T16:41:36;25.70;90.00
33023;DHT22;19390;51.460;5.710;2022-09-01T16:49:44;25.30;90.30
33023;DHT22;19390;51.460;5.710;2022-09-01T16:52:23;25.20;90.50
33023;DHT22;19390;51.460;5.710;2022-09-01T16:55:18;25.40;90.50
33023;DHT22;19390;51.460;5.710;2022-09-01T16:58:23;25.40;90.80
33023;DHT22;19390;51.460;5.710;2022-09-01T17:04:05;25.20;90.90
33023;DHT22;19390;51.460;5.710;2022-09-01T17:06:43;24.90;91.70